Terminal Aerodrome Forecast
Issued by NWS

Home | Current Version | Previous Version | Text Only | Print | Product List | Glossary On
Versions: 1 2 3 4 5 6 7 8 9 10 11 12 13 14 15
158
FTUS43 KAPX 270520
TAFPLN
TAF
KPLN 270520Z 2706/2806 25012G22KT P6SM -SHRA SCT035 OVC050
      TEMPO 2706/2710 4SM -SHRA OVC035
     FM272000 23008KT P6SM -SHRA OVC035
     FM280200 20004KT 6SM -SHRA BR OVC025=

USA.gov is the U.S. government's official web portal to all federal, state and local government web resources and services.